createdAt,value
2017-12-22T00:01:22.284Z,79.50
2017-12-22T00:03:49.916Z,79.40
2017-12-22T00:06:17.465Z,79.60
2017-12-22T00:08:45.021Z,79.70
2017-12-22T00:11:13.334Z,79.40
2017-12-22T00:13:41.731Z,79.70
2017-12-22T00:16:10.035Z,79.70
2017-12-22T00:18:38.338Z,79.40
2017-12-22T00:21:05.903Z,79.40
2017-12-22T00:23:33.434Z,79.50
2017-12-22T00:26:00.943Z,79.60
2017-12-22T00:28:28.524Z,79.50
2017-12-22T00:30:56.105Z,79.70
2017-12-22T00:33:23.697Z,80.00
2017-12-22T00:35:51.330Z,79.70
2017-12-22T00:38:18.876Z,79.70
2017-12-22T00:40:46.387Z,80.00
2017-12-22T00:43:13.908Z,80.20
2017-12-22T00:45:53.146Z,80.30
2017-12-22T00:48:20.706Z,80.30
2017-12-22T00:50:48.242Z,80.30
2017-12-22T00:53:16.187Z,80.00
2017-12-22T00:55:43.697Z,80.00
2017-12-22T00:58:11.245Z,80.10
2017-12-22T01:00:38.764Z,80.20
2017-12-22T01:03:06.275Z,80.00
2017-12-22T01:05:33.822Z,79.90
2017-12-22T01:08:02.110Z,80.00
2017-12-22T01:10:29.623Z,80.00
2017-12-22T01:12:57.929Z,80.00
2017-12-22T01:15:31.767Z,79.50
2017-12-22T01:18:05.620Z,79.60
2017-12-22T01:20:33.219Z,79.60
2017-12-22T01:23:00.734Z,79.60
2017-12-22T01:25:28.308Z,79.60
2017-12-22T01:27:55.842Z,79.80
2017-12-22T01:30:23.461Z,79.60
2017-12-22T01:32:51.782Z,80.10
2017-12-22T01:35:20.076Z,79.60
2017-12-22T01:37:48.378Z,79.40
2017-12-22T01:40:16.682Z,79.50
2017-12-22T01:42:44.217Z,79.30
2017-12-22T01:45:11.746Z,79.80
2017-12-22T01:47:39.277Z,79.90
2017-12-22T01:50:06.829Z,79.70
2017-12-22T01:52:35.133Z,79.60
2017-12-22T01:55:02.649Z,79.60
2017-12-22T01:57:30.262Z,80.00
2017-12-22T01:59:57.783Z,79.70
2017-12-22T02:02:25.327Z,79.50
2017-12-22T02:04:52.857Z,79.70
2017-12-22T02:07:20.374Z,79.10
2017-12-22T02:09:47.943Z,79.00
2017-12-22T02:12:15.502Z,79.10
2017-12-22T02:14:43.045Z,79.30
2017-12-22T02:17:10.608Z,79.20
2017-12-22T02:19:38.115Z,79.50
2017-12-22T02:22:06.395Z,79.30
2017-12-22T02:24:33.940Z,79.20
2017-12-22T02:27:01.492Z,79.80
2017-12-22T02:29:29.006Z,79.90
2017-12-22T02:31:57.326Z,80.00
2017-12-22T02:34:24.866Z,79.80
2017-12-22T02:36:52.421Z,79.80
2017-12-22T02:39:20.012Z,79.70
2017-12-22T02:41:47.510Z,79.50
2017-12-22T02:44:15.305Z,79.80
2017-12-22T02:46:42.867Z,79.40
2017-12-22T02:49:10.395Z,79.70
2017-12-22T02:51:37.920Z,79.40
2017-12-22T02:54:06.336Z,79.10
2017-12-22T02:56:34.623Z,79.10
2017-12-22T02:59:02.145Z,79.10
2017-12-22T03:01:29.691Z,79.30
2017-12-22T03:03:57.224Z,79.00
2017-12-22T03:06:25.512Z,78.40
2017-12-22T03:08:53.845Z,78.80
2017-12-22T03:11:21.378Z,78.90
2017-12-22T03:13:48.889Z,78.40
2017-12-22T03:16:16.449Z,78.50
2017-12-22T03:18:44.001Z,78.80
2017-12-22T03:21:12.307Z,78.80
2017-12-22T03:23:39.868Z,78.90
2017-12-22T03:26:07.374Z,78.80
2017-12-22T03:28:34.946Z,78.40
2017-12-22T03:31:02.450Z,77.70
2017-12-22T03:33:37.509Z,77.80
2017-12-22T03:36:05.032Z,77.90
2017-12-22T03:38:32.559Z,77.60
2017-12-22T03:41:00.275Z,77.40
2017-12-22T03:43:27.816Z,77.90
2017-12-22T03:45:55.344Z,78.10
2017-12-22T03:48:22.905Z,78.00
2017-12-22T03:50:51.314Z,78.10
2017-12-22T03:53:18.861Z,78.10
2017-12-22T03:55:46.375Z,77.60
2017-12-22T03:58:13.896Z,77.60
2017-12-22T04:00:41.472Z,77.90
2017-12-22T04:03:09.137Z,77.90
2017-12-22T04:05:36.665Z,77.80
2017-12-22T04:08:04.220Z,77.30
2017-12-22T04:10:31.734Z,77.50
2017-12-22T04:12:59.276Z,77.60
2017-12-22T04:15:27.590Z,78.50
2017-12-22T04:17:55.119Z,78.50
2017-12-22T04:20:22.664Z,78.40
2017-12-22T04:22:50.216Z,78.10
2017-12-22T04:25:17.801Z,77.80
2017-12-22T04:27:45.413Z,78.00
2017-12-22T04:30:12.981Z,78.10
2017-12-22T04:32:41.315Z,78.00
2017-12-22T04:35:08.856Z,78.00
2017-12-22T04:37:36.424Z,77.80
2017-12-22T04:40:04.012Z,77.80
2017-12-22T04:42:32.302Z,77.80
2017-12-22T04:45:00.615Z,77.70
2017-12-22T04:47:28.128Z,77.60
2017-12-22T04:49:55.675Z,77.60
2017-12-22T04:52:23.272Z,77.70
2017-12-22T04:54:50.924Z,77.50
2017-12-22T04:57:19.300Z,77.10
2017-12-22T04:59:47.597Z,77.20
2017-12-22T05:02:15.192Z,77.20
2017-12-22T05:04:42.749Z,77.30
2017-12-22T05:07:10.337Z,77.30
2017-12-22T05:09:37.912Z,77.10
2017-12-22T05:12:05.448Z,76.90
2017-12-22T05:14:33.010Z,77.10
2017-12-22T05:17:00.530Z,77.00
2017-12-22T05:19:28.102Z,77.10
2017-12-22T05:21:55.717Z,76.90
2017-12-22T05:24:24.010Z,77.00
2017-12-22T05:26:51.606Z,77.00
2017-12-22T05:29:19.111Z,77.00
2017-12-22T05:31:47.426Z,77.20
2017-12-22T05:34:15.844Z,77.00
2017-12-22T05:36:44.136Z,76.90
2017-12-22T05:39:12.451Z,77.10
2017-12-22T05:41:39.984Z,77.00
2017-12-22T05:44:07.534Z,77.00
2017-12-22T05:46:35.163Z,76.70
2017-12-22T05:49:02.719Z,77.00
2017-12-22T05:56:47.527Z,77.30
2017-12-22T05:59:15.040Z,77.30
2017-12-22T06:01:49.102Z,77.10
2017-12-22T06:04:17.440Z,77.40
2017-12-22T06:09:18.427Z,77.30
2017-12-22T06:11:45.965Z,77.10
2017-12-22T06:14:14.307Z,77.00
2017-12-22T06:16:41.844Z,77.00
2017-12-22T06:19:09.387Z,76.80
2017-12-22T06:21:36.958Z,77.00
2017-12-22T06:24:04.880Z,76.70
2017-12-22T06:26:32.442Z,76.90
2017-12-22T06:28:59.976Z,76.80
2017-12-22T06:31:27.507Z,76.50
2017-12-22T06:33:55.840Z,76.80
2017-12-22T06:36:23.460Z,76.90
2017-12-22T06:38:51.082Z,77.00
2017-12-22T06:41:19.437Z,76.80
2017-12-22T06:43:46.952Z,76.80
2017-12-22T06:46:14.505Z,76.90
2017-12-22T06:48:42.039Z,76.80
2017-12-22T06:51:09.582Z,76.70
2017-12-22T06:53:37.129Z,76.80
2017-12-22T06:56:04.672Z,76.80
2017-12-22T06:58:32.282Z,76.50
2017-12-22T07:00:59.834Z,76.60
2017-12-22T07:03:27.360Z,76.80
2017-12-22T07:05:54.981Z,76.90
2017-12-22T07:08:22.541Z,77.00
2017-12-22T07:10:50.095Z,77.20
2017-12-22T07:13:17.646Z,77.00
2017-12-22T07:15:45.167Z,77.00
2017-12-22T07:18:12.720Z,76.50
2017-12-22T07:20:41.016Z,76.70
2017-12-22T07:23:08.575Z,76.80
2017-12-22T07:25:36.297Z,76.80
2017-12-22T07:28:03.932Z,76.80
2017-12-22T07:30:32.341Z,76.50
2017-12-22T07:32:59.970Z,76.50
2017-12-22T07:35:27.535Z,76.00
2017-12-22T07:37:55.083Z,75.90
2017-12-22T07:40:23.367Z,75.30
2017-12-22T07:42:50.907Z,75.40
2017-12-22T07:45:18.417Z,75.20
2017-12-22T07:47:46.903Z,75.20
2017-12-22T07:50:14.448Z,74.90
2017-12-22T07:52:42.013Z,75.00
2017-12-22T07:55:09.533Z,75.10
2017-12-22T07:57:37.062Z,74.80
2017-12-22T08:00:04.643Z,74.80
2017-12-22T08:02:32.195Z,74.70
2017-12-22T08:04:59.818Z,75.40
2017-12-22T08:07:28.129Z,74.20
2017-12-22T08:09:55.680Z,74.10
2017-12-22T08:12:23.215Z,74.50
2017-12-22T08:14:50.796Z,74.90
2017-12-22T08:17:18.360Z,75.10
2017-12-22T08:19:45.950Z,75.40
2017-12-22T08:22:13.639Z,75.00
2017-12-22T08:24:41.961Z,74.90
2017-12-22T08:27:09.596Z,75.00
2017-12-22T08:29:37.123Z,74.90
2017-12-22T08:32:05.430Z,74.80
2017-12-22T08:34:32.968Z,74.80
2017-12-22T08:37:00.505Z,74.90
2017-12-22T08:39:28.798Z,74.40
2017-12-22T08:41:57.103Z,74.30
2017-12-22T08:44:25.376Z,74.40
2017-12-22T08:46:52.980Z,74.40
2017-12-22T08:49:20.556Z,74.20
2017-12-22T08:51:48.125Z,74.30
2017-12-22T08:54:15.627Z,74.00
2017-12-22T08:56:43.171Z,73.60
2017-12-22T08:59:10.722Z,73.80
2017-12-22T09:01:38.306Z,73.90
2017-12-22T09:04:06.633Z,73.90
2017-12-22T09:06:34.320Z,73.90
2017-12-22T09:09:01.934Z,73.90
2017-12-22T09:11:29.498Z,74.50
2017-12-22T09:13:57.028Z,73.70
2017-12-22T09:16:25.321Z,73.20
2017-12-22T09:18:52.826Z,73.30
2017-12-22T09:21:20.370Z,73.50
2017-12-22T09:23:47.908Z,73.40
2017-12-22T09:26:15.528Z,73.40
2017-12-22T09:28:43.157Z,73.20
2017-12-22T09:31:10.722Z,73.30
2017-12-22T09:33:38.246Z,73.30
2017-12-22T09:36:05.770Z,73.30
2017-12-22T09:38:34.130Z,73.70
2017-12-22T09:41:02.096Z,73.90
2017-12-22T09:43:29.699Z,73.60
2017-12-22T09:45:57.314Z,74.00
2017-12-22T09:48:24.895Z,74.20
2017-12-22T09:50:52.614Z,75.30
2017-12-22T09:53:20.165Z,74.80
2017-12-22T09:55:47.735Z,74.70
2017-12-22T09:58:15.304Z,74.70
2017-12-22T10:00:42.972Z,74.90
2017-12-22T10:03:10.502Z,75.10
2017-12-22T10:05:38.795Z,74.90
2017-12-22T10:08:07.242Z,74.80
2017-12-22T10:10:34.770Z,74.80
2017-12-22T10:13:02.364Z,74.70
2017-12-22T10:15:29.953Z,74.60
2017-12-22T10:17:57.468Z,75.20
2017-12-22T10:20:25.026Z,75.30
2017-12-22T10:22:52.646Z,75.20
2017-12-22T10:25:20.170Z,75.30
2017-12-22T10:27:48.474Z,75.50
2017-12-22T10:30:16.936Z,75.00
2017-12-22T10:32:44.538Z,75.40
2017-12-22T10:35:12.073Z,75.30
2017-12-22T10:37:40.479Z,76.10
2017-12-22T10:40:08.033Z,76.30
2017-12-22T10:42:35.612Z,76.40
2017-12-22T10:45:03.206Z,76.40
2017-12-22T10:47:30.943Z,75.90
2017-12-22T10:49:58.482Z,75.60
2017-12-22T10:52:26.046Z,75.70
2017-12-22T10:54:53.590Z,75.70
2017-12-22T10:57:21.976Z,75.60
2017-12-22T10:59:49.812Z,75.70
2017-12-22T11:02:17.356Z,75.20
2017-12-22T11:04:44.923Z,75.50
2017-12-22T11:07:12.447Z,75.50
2017-12-22T11:09:40.149Z,75.30
2017-12-22T11:12:08.455Z,74.80
2017-12-22T11:14:35.991Z,74.90
2017-12-22T11:17:03.612Z,74.90
2017-12-22T11:19:31.233Z,74.90
2017-12-22T11:21:58.759Z,74.80
2017-12-22T11:24:27.268Z,75.30
2017-12-22T11:26:55.577Z,75.50
2017-12-22T11:29:23.950Z,75.00
2017-12-22T11:31:51.489Z,75.00
2017-12-22T11:34:19.064Z,75.00
2017-12-22T11:36:47.406Z,74.20
2017-12-22T11:39:14.938Z,74.10
2017-12-22T11:41:42.511Z,74.20
2017-12-22T11:44:10.052Z,74.00
2017-12-22T11:46:37.688Z,74.30
2017-12-22T11:49:05.965Z,74.10
2017-12-22T11:51:33.495Z,74.20
2017-12-22T11:54:01.036Z,73.80
2017-12-22T11:56:28.597Z,73.80
2017-12-22T11:58:56.268Z,74.20
2017-12-22T12:01:24.567Z,74.20
2017-12-22T12:03:52.187Z,74.30
2017-12-22T12:06:19.724Z,74.10
2017-12-22T12:08:47.337Z,74.30
2017-12-22T12:11:15.682Z,73.90
2017-12-22T12:13:43.225Z,74.00
2017-12-22T12:16:10.790Z,73.80
2017-12-22T12:18:38.324Z,73.90
2017-12-22T12:21:05.874Z,74.00
2017-12-22T12:23:33.446Z,73.90
2017-12-22T12:26:00.972Z,74.00
2017-12-22T12:28:28.506Z,74.40
2017-12-22T12:30:56.178Z,73.90
2017-12-22T12:33:23.719Z,74.20
2017-12-22T12:35:51.329Z,74.20
2017-12-22T12:38:18.867Z,74.80
2017-12-22T12:40:46.420Z,74.90
2017-12-22T12:43:13.936Z,74.70
2017-12-22T12:45:41.509Z,74.60
2017-12-22T12:48:09.126Z,74.60
2017-12-22T12:50:36.669Z,75.10
2017-12-22T12:53:05.148Z,75.60
2017-12-22T12:55:32.666Z,75.60
2017-12-22T12:58:00.386Z,76.20
2017-12-22T13:00:28.699Z,76.70
2017-12-22T13:02:57.022Z,76.50
2017-12-22T13:05:24.548Z,76.40
2017-12-22T13:07:52.096Z,77.20
2017-12-22T13:10:19.621Z,77.30
2017-12-22T13:12:47.133Z,77.40
2017-12-22T13:15:15.567Z,77.80
2017-12-22T13:17:43.114Z,77.90
2017-12-22T13:20:11.460Z,77.90
2017-12-22T13:22:38.997Z,77.80
2017-12-22T13:25:06.504Z,78.20
2017-12-22T13:27:34.318Z,78.60
2017-12-22T13:30:02.613Z,78.90
2017-12-22T13:32:30.950Z,79.20
2017-12-22T13:34:58.477Z,79.30
2017-12-22T13:37:26.034Z,79.00
2017-12-22T13:39:53.549Z,79.30
2017-12-22T13:42:21.152Z,79.70
2017-12-22T13:44:48.700Z,80.00
2017-12-22T13:47:16.395Z,79.40
2017-12-22T13:49:44.197Z,79.70
2017-12-22T13:52:11.719Z,80.20
2017-12-22T13:54:39.252Z,80.50
2017-12-22T13:57:06.907Z,80.70
2017-12-22T13:59:35.375Z,81.00
2017-12-22T14:02:02.940Z,81.00
2017-12-22T14:04:30.558Z,81.00
2017-12-22T14:06:58.089Z,80.80
2017-12-22T14:09:26.638Z,80.60
2017-12-22T14:11:54.204Z,80.30
2017-12-22T14:14:21.771Z,80.00
2017-12-22T14:16:49.439Z,80.00
2017-12-22T14:19:17.028Z,79.90
2017-12-22T14:21:45.326Z,80.20
2017-12-22T14:24:13.653Z,79.90
2017-12-22T14:26:41.333Z,79.90
2017-12-22T14:29:09.638Z,80.20
2017-12-22T14:31:38.003Z,80.10
2017-12-22T14:34:05.545Z,80.00
2017-12-22T14:36:33.877Z,80.30
2017-12-22T14:39:01.483Z,80.30
2017-12-22T14:41:29.110Z,80.20
2017-12-22T14:43:56.792Z,81.00
2017-12-22T14:46:24.397Z,81.00
2017-12-22T14:48:51.945Z,80.80
2017-12-22T14:51:19.602Z,80.80
2017-12-22T14:53:47.315Z,81.40
2017-12-22T14:56:15.609Z,81.00
2017-12-22T14:58:43.967Z,81.20
2017-12-22T15:01:11.563Z,81.20
2017-12-22T15:03:39.109Z,81.30
2017-12-22T15:06:06.671Z,81.00
2017-12-22T15:08:34.259Z,80.70
2017-12-22T15:11:01.833Z,81.20
2017-12-22T15:13:29.357Z,80.60
2017-12-22T15:15:56.958Z,80.20
2017-12-22T15:18:25.246Z,80.00
2017-12-22T15:20:53.623Z,80.20
2017-12-22T15:23:21.228Z,80.80
2017-12-22T15:25:48.855Z,80.50
2017-12-22T15:28:16.399Z,80.50
2017-12-22T15:30:44.871Z,80.60
2017-12-22T15:33:12.429Z,80.60
2017-12-22T15:35:39.992Z,80.60
2017-12-22T15:38:07.683Z,80.70
2017-12-22T15:40:35.241Z,80.60
2017-12-22T15:43:02.833Z,81.00
2017-12-22T15:45:30.367Z,81.10
2017-12-22T15:47:58.128Z,81.00
2017-12-22T15:50:25.672Z,80.80
2017-12-22T15:52:54.042Z,80.40
2017-12-22T15:55:21.571Z,80.50
2017-12-22T15:57:49.132Z,80.60
2017-12-22T16:00:16.688Z,80.60
2017-12-22T16:02:44.221Z,80.40
2017-12-22T16:05:11.748Z,79.90
2017-12-22T16:07:39.279Z,80.00
2017-12-22T16:10:07.741Z,80.70
2017-12-22T16:12:35.278Z,80.60
2017-12-22T16:15:02.825Z,80.80
2017-12-22T16:17:30.365Z,80.70
2017-12-22T16:19:58.759Z,81.20
2017-12-22T16:22:26.365Z,81.20
2017-12-22T16:24:53.983Z,81.50
2017-12-22T16:27:22.251Z,81.30
2017-12-22T16:29:49.812Z,81.40
2017-12-22T16:32:17.569Z,81.30
2017-12-22T16:34:45.140Z,81.10
2017-12-22T16:37:12.677Z,81.20
2017-12-22T16:39:40.195Z,81.30
2017-12-22T16:42:07.770Z,81.20
2017-12-22T16:44:35.321Z,81.10
2017-12-22T16:47:03.610Z,81.00
2017-12-22T16:49:31.193Z,81.10
2017-12-22T16:51:58.777Z,81.00
2017-12-22T16:54:26.378Z,80.80
2017-12-22T16:56:54.191Z,80.80
2017-12-22T16:59:21.933Z,80.60
2017-12-22T17:01:49.465Z,80.80
2017-12-22T17:04:17.821Z,80.50
2017-12-22T17:06:45.357Z,80.60
2017-12-22T17:09:13.662Z,80.30
2017-12-22T17:11:41.297Z,80.50
2017-12-22T17:14:08.874Z,80.20
2017-12-22T17:16:36.424Z,80.30
2017-12-22T17:19:04.073Z,80.00
2017-12-22T17:21:31.665Z,79.70
2017-12-22T17:23:59.196Z,80.00
2017-12-22T17:26:26.714Z,79.90
2017-12-22T17:28:54.329Z,80.00
2017-12-22T17:31:21.902Z,80.00
2017-12-22T17:33:50.389Z,79.90
2017-12-22T17:36:18.727Z,80.10
2017-12-22T17:38:46.284Z,80.20
2017-12-22T17:41:14.051Z,80.30
2017-12-22T17:43:41.568Z,80.20
2017-12-22T17:46:09.158Z,79.90
2017-12-22T17:48:37.472Z,79.60
2017-12-22T17:51:05.003Z,79.60
2017-12-22T17:53:32.551Z,79.60
2017-12-22T17:56:00.264Z,79.40
2017-12-22T17:58:27.851Z,79.40
2017-12-22T18:00:55.374Z,79.50
2017-12-22T18:03:23.043Z,80.00
2017-12-22T18:05:50.599Z,79.70
2017-12-22T18:08:18.119Z,79.50
2017-12-22T18:10:45.731Z,79.20
2017-12-22T18:13:13.250Z,79.30
2017-12-22T18:15:41.539Z,79.30
2017-12-22T18:18:09.078Z,79.30
2017-12-22T18:20:36.598Z,79.30
2017-12-22T18:23:04.155Z,79.80
2017-12-22T18:25:31.740Z,80.10
2017-12-22T18:27:59.325Z,79.80
2017-12-22T18:30:26.908Z,80.60
2017-12-22T18:32:54.565Z,80.20
2017-12-22T18:35:22.144Z,80.60
2017-12-22T18:37:49.684Z,80.70
2017-12-22T18:40:17.245Z,80.60
2017-12-22T18:42:45.535Z,80.40
2017-12-22T18:45:13.862Z,80.50
2017-12-22T18:47:41.402Z,80.50
2017-12-22T18:50:08.950Z,80.20
2017-12-22T18:52:36.526Z,80.40
2017-12-22T18:55:04.115Z,80.70
2017-12-22T18:57:31.692Z,80.70
2017-12-22T18:59:59.221Z,80.80
2017-12-22T19:02:26.811Z,80.60
2017-12-22T19:04:54.361Z,80.70
2017-12-22T19:07:21.916Z,80.30
2017-12-22T19:09:49.548Z,80.40
2017-12-22T19:12:17.144Z,80.10
2017-12-22T19:14:44.669Z,80.70
2017-12-22T19:17:12.366Z,80.40
2017-12-22T19:19:39.973Z,80.30
2017-12-22T19:22:07.619Z,80.30
2017-12-22T19:24:35.177Z,80.40
2017-12-22T19:27:03.536Z,79.90
2017-12-22T19:29:31.159Z,80.00
2017-12-22T19:31:58.691Z,80.00
2017-12-22T19:34:26.259Z,79.90
2017-12-22T19:36:53.832Z,79.70
2017-12-22T19:39:21.571Z,79.50
2017-12-22T19:41:49.133Z,79.50
2017-12-22T19:44:17.588Z,79.40
2017-12-22T19:46:45.123Z,79.40
2017-12-22T19:49:12.834Z,79.40
2017-12-22T19:51:40.335Z,79.40
2017-12-22T19:54:08.619Z,79.10
2017-12-22T19:56:36.200Z,79.20
2017-12-22T19:59:03.713Z,78.90
2017-12-22T20:01:31.259Z,79.00
2017-12-22T20:03:58.840Z,79.10
2017-12-22T20:06:26.572Z,79.00
2017-12-22T20:08:54.094Z,79.10
2017-12-22T20:11:22.473Z,79.10
2017-12-22T20:13:50.033Z,79.10
2017-12-22T20:16:17.582Z,79.20
2017-12-22T20:18:45.158Z,79.00
2017-12-22T20:21:12.684Z,79.30
2017-12-22T20:23:40.342Z,79.30
2017-12-22T20:26:07.886Z,79.30
2017-12-22T20:28:35.519Z,79.40
2017-12-22T20:31:03.037Z,79.30
2017-12-22T20:33:31.386Z,79.30
2017-12-22T20:35:58.920Z,79.30
2017-12-22T20:38:26.424Z,79.10
2017-12-22T20:40:54.885Z,78.90
2017-12-22T20:43:22.456Z,79.00
2017-12-22T20:45:49.983Z,78.80
2017-12-22T20:48:17.571Z,78.30
2017-12-22T20:50:45.175Z,78.60
2017-12-22T20:53:12.740Z,78.70
2017-12-22T20:55:40.377Z,78.90
2017-12-22T20:58:07.931Z,78.90
2017-12-22T21:00:35.461Z,78.80
2017-12-22T21:03:03.823Z,78.90
2017-12-22T21:05:31.367Z,78.90
2017-12-22T21:07:59.038Z,78.90
2017-12-22T21:10:26.710Z,78.90
2017-12-22T21:12:54.269Z,79.10
2017-12-22T21:15:22.594Z,79.30
2017-12-22T21:17:50.138Z,79.10
2017-12-22T21:20:17.691Z,79.20
2017-12-22T21:22:45.215Z,78.80
2017-12-22T21:25:13.658Z,79.50
2017-12-22T21:27:41.195Z,79.50
2017-12-22T21:30:08.740Z,79.40
2017-12-22T21:32:36.278Z,79.40
2017-12-22T21:35:03.872Z,79.40
2017-12-22T21:37:32.202Z,79.20
2017-12-22T21:39:59.827Z,79.20
2017-12-22T21:42:27.408Z,79.10
2017-12-22T21:44:54.972Z,79.30
2017-12-22T21:47:22.582Z,79.20
2017-12-22T21:49:50.184Z,79.30
2017-12-22T21:52:18.525Z,79.40
2017-12-22T21:54:46.024Z,79.30
2017-12-22T21:57:13.597Z,79.10
2017-12-22T21:59:41.323Z,79.20
2017-12-22T22:02:09.668Z,79.70
2017-12-22T22:04:37.978Z,79.60
2017-12-22T22:07:05.634Z,79.40
2017-12-22T22:09:33.187Z,79.20
2017-12-22T22:12:00.705Z,79.20
2017-12-22T22:14:28.341Z,79.20
2017-12-22T22:16:55.861Z,79.20
2017-12-22T22:19:23.400Z,79.20
2017-12-22T22:21:50.929Z,79.00
2017-12-22T22:24:18.462Z,78.90
2017-12-22T22:26:46.021Z,78.90
2017-12-22T22:29:13.557Z,78.80
2017-12-22T22:31:41.959Z,78.20
2017-12-22T22:34:09.545Z,78.30
2017-12-22T22:36:37.199Z,78.30
2017-12-22T22:39:04.730Z,78.40
2017-12-22T22:41:33.065Z,78.40
2017-12-22T22:44:00.612Z,78.30
2017-12-22T22:46:28.953Z,78.40
2017-12-22T22:48:56.500Z,78.40
2017-12-22T22:51:25.721Z,78.40
2017-12-22T22:53:53.601Z,78.40
2017-12-22T22:56:21.135Z,78.40
2017-12-22T22:58:48.717Z,78.60
2017-12-22T23:01:16.328Z,78.80
2017-12-22T23:03:44.630Z,78.60
2017-12-22T23:06:12.194Z,78.70
2017-12-22T23:08:39.744Z,78.50
2017-12-22T23:11:07.277Z,78.40
2017-12-22T23:13:34.839Z,78.40
2017-12-22T23:16:02.383Z,78.20
2017-12-22T23:18:30.695Z,78.30
2017-12-22T23:20:58.246Z,78.40
2017-12-22T23:23:25.780Z,78.70
2017-12-22T23:25:53.409Z,78.90
2017-12-22T23:28:20.945Z,78.80
2017-12-22T23:30:48.565Z,78.70
2017-12-22T23:33:16.152Z,78.50
2017-12-22T23:35:43.661Z,78.70
2017-12-22T23:38:11.221Z,78.90
2017-12-22T23:40:38.774Z,78.80
2017-12-22T23:43:06.519Z,78.80
2017-12-22T23:45:34.169Z,78.60
2017-12-22T23:48:02.547Z,78.70
2017-12-22T23:50:30.132Z,78.70
2017-12-22T23:52:57.648Z,78.30
2017-12-22T23:55:25.194Z,78.60
2017-12-22T23:57:52.856Z,78.90
